createdAt,value
2023-03-22T00:01:56.174Z,10.01
2023-03-22T00:04:22.497Z,10.15
2023-03-22T00:06:48.833Z,10.27
2023-03-22T00:09:15.148Z,10.35
2023-03-22T00:11:41.463Z,10.41
2023-03-22T00:14:07.799Z,10.37
2023-03-22T00:16:34.182Z,10.42
2023-03-22T00:19:00.548Z,10.35
2023-03-22T00:21:26.891Z,10.40
2023-03-22T00:23:53.216Z,10.50
2023-03-22T00:26:19.548Z,10.27
2023-03-22T00:28:45.881Z,10.34
2023-03-22T00:31:12.210Z,10.27
2023-03-22T00:33:38.551Z,10.37
2023-03-22T00:36:04.917Z,10.39
2023-03-22T00:38:41.618Z,10.45
2023-03-22T00:41:08.595Z,10.40
2023-03-22T00:43:34.904Z,10.39
2023-03-22T00:46:01.268Z,10.24
2023-03-22T00:48:27.597Z,10.28
2023-03-22T00:50:53.925Z,10.26
2023-03-22T00:53:20.256Z,10.09
2023-03-22T00:55:46.569Z,10.06
2023-03-22T00:58:12.901Z,10.20
2023-03-22T01:00:39.451Z,10.14
2023-03-22T01:03:05.980Z,10.07
2023-03-22T01:05:32.390Z,9.97
2023-03-22T01:07:58.710Z,9.94
2023-03-22T01:10:25.032Z,9.87
2023-03-22T01:12:51.358Z,9.85
2023-03-22T01:15:17.690Z,9.79
2023-03-22T01:17:44.008Z,9.55
2023-03-22T01:20:10.328Z,9.29
2023-03-22T01:22:36.637Z,9.08
2023-03-22T01:25:03.113Z,9.10
2023-03-22T01:27:29.440Z,9.16
2023-03-22T01:29:55.763Z,9.18
2023-03-22T01:32:22.091Z,9.19
2023-03-22T01:34:48.442Z,9.15
2023-03-22T01:37:14.765Z,9.04
2023-03-22T01:39:41.084Z,8.85
2023-03-22T01:42:07.397Z,8.77
2023-03-22T01:44:33.711Z,8.62
2023-03-22T01:47:00.059Z,8.57
2023-03-22T01:49:26.363Z,8.46
2023-03-22T01:51:52.665Z,8.34
2023-03-22T01:54:18.978Z,8.14
2023-03-22T01:56:45.317Z,8.09
2023-03-22T01:59:11.646Z,8.06
2023-03-22T02:01:38.117Z,7.97
2023-03-22T02:04:04.472Z,7.86
2023-03-22T02:06:30.814Z,7.72
2023-03-22T02:08:57.118Z,7.68
2023-03-22T02:11:23.438Z,7.63
2023-03-22T02:13:49.838Z,7.61
2023-03-22T02:16:16.230Z,7.59
2023-03-22T02:18:42.581Z,7.55
2023-03-22T02:21:08.906Z,7.52
2023-03-22T02:23:35.238Z,7.49
2023-03-22T02:26:01.584Z,7.51
2023-03-22T02:28:27.911Z,7.54
2023-03-22T02:30:54.262Z,7.63
2023-03-22T02:33:20.600Z,7.62
2023-03-22T02:35:46.987Z,7.67
2023-03-22T02:38:13.334Z,7.70
2023-03-22T02:40:39.860Z,7.72
2023-03-22T02:43:06.321Z,7.75
2023-03-22T02:45:32.644Z,7.81
2023-03-22T02:47:58.986Z,7.87
2023-03-22T02:50:25.325Z,7.79
2023-03-22T02:52:51.632Z,7.74
2023-03-22T02:55:18.030Z,7.66
2023-03-22T02:57:44.361Z,7.61
2023-03-22T03:00:10.665Z,7.38
2023-03-22T03:02:36.995Z,7.25
2023-03-22T03:05:03.369Z,7.13
2023-03-22T03:07:29.703Z,7.04
2023-03-22T03:09:56.039Z,6.90
2023-03-22T03:12:22.386Z,6.82
2023-03-22T03:14:48.715Z,6.73
2023-03-22T03:17:15.069Z,6.72
2023-03-22T03:19:41.406Z,6.75
2023-03-22T03:22:07.717Z,6.85
2023-03-22T03:24:34.027Z,6.79
2023-03-22T03:27:00.324Z,6.75
2023-03-22T03:29:26.661Z,6.67
2023-03-22T03:31:53.034Z,6.68
2023-03-22T03:34:19.424Z,6.69
2023-03-22T03:36:45.749Z,6.69
2023-03-22T03:39:12.084Z,6.75
2023-03-22T03:41:38.424Z,6.83
2023-03-22T03:44:04.730Z,6.89
2023-03-22T03:46:31.045Z,7.08
2023-03-22T03:48:57.354Z,7.25
2023-03-22T03:51:23.664Z,7.41
2023-03-22T03:53:49.980Z,7.53
2023-03-22T03:56:16.320Z,7.51
2023-03-22T03:58:42.641Z,7.37
2023-03-22T04:01:09.356Z,7.18
2023-03-22T04:03:35.688Z,7.12
2023-03-22T04:06:02.010Z,7.08
2023-03-22T04:08:28.323Z,7.12
2023-03-22T04:10:54.641Z,7.16
2023-03-22T04:13:20.952Z,7.11
2023-03-22T04:15:47.251Z,6.98
2023-03-22T04:18:13.572Z,6.94
2023-03-22T04:20:40.158Z,6.89
2023-03-22T04:23:06.718Z,6.70
2023-03-22T04:25:33.039Z,6.70
2023-03-22T04:27:59.343Z,6.67
2023-03-22T04:30:25.662Z,6.62
2023-03-22T04:32:51.968Z,6.57
2023-03-22T04:35:18.278Z,6.58
2023-03-22T04:37:44.610Z,6.63
2023-03-22T04:40:10.964Z,6.66
2023-03-22T04:42:37.276Z,6.65
2023-03-22T04:45:03.595Z,6.65
2023-03-22T04:47:29.905Z,6.61
2023-03-22T04:49:56.210Z,6.63
2023-03-22T04:52:22.530Z,6.66
2023-03-22T04:54:48.857Z,6.59
2023-03-22T04:57:15.158Z,6.59
2023-03-22T04:59:41.476Z,6.57
2023-03-22T05:02:07.792Z,6.45
2023-03-22T05:04:34.106Z,6.22
2023-03-22T05:07:00.527Z,6.10
2023-03-22T05:09:26.866Z,5.96
2023-03-22T05:11:53.192Z,5.96
2023-03-22T05:14:19.527Z,5.93
2023-03-22T05:16:45.910Z,5.95
2023-03-22T05:19:12.232Z,5.92
2023-03-22T05:21:38.552Z,5.93
2023-03-22T05:24:04.888Z,6.03
2023-03-22T05:26:31.225Z,6.04
2023-03-22T05:28:57.556Z,6.08
2023-03-22T05:31:23.962Z,6.03
2023-03-22T05:33:50.318Z,6.05
2023-03-22T05:36:16.629Z,6.03
2023-03-22T05:38:42.949Z,6.01
2023-03-22T05:41:09.277Z,5.94
2023-03-22T05:43:35.611Z,5.89
2023-03-22T05:46:01.933Z,5.84
2023-03-22T05:48:28.260Z,5.87
2023-03-22T05:50:54.569Z,5.89
2023-03-22T05:53:20.899Z,5.91
2023-03-22T05:55:47.217Z,5.91
2023-03-22T05:58:13.518Z,5.91
2023-03-22T06:00:40.063Z,5.90
2023-03-22T06:03:06.537Z,5.80
2023-03-22T06:05:32.892Z,5.79
2023-03-22T06:07:59.223Z,5.82
2023-03-22T06:10:25.534Z,5.84
2023-03-22T06:12:51.949Z,5.87
2023-03-22T06:15:18.296Z,5.87
2023-03-22T06:17:44.633Z,5.90
2023-03-22T06:20:10.963Z,5.90
2023-03-22T06:22:37.307Z,5.93
2023-03-22T06:25:03.633Z,6.00
2023-03-22T06:27:29.940Z,6.08
2023-03-22T06:29:56.270Z,6.21
2023-03-22T06:32:22.603Z,6.29
2023-03-22T06:34:48.931Z,6.37
2023-03-22T06:37:15.265Z,6.53
2023-03-22T06:39:41.578Z,6.76
2023-03-22T06:42:07.903Z,6.91
2023-03-22T06:44:34.253Z,7.02
2023-03-22T06:47:00.562Z,7.09
2023-03-22T06:49:26.872Z,7.18
2023-03-22T06:51:53.202Z,7.26
2023-03-22T06:54:19.526Z,7.47
2023-03-22T06:56:45.852Z,7.65
2023-03-22T06:59:12.182Z,7.78
2023-03-22T07:01:38.566Z,7.90
2023-03-22T07:04:05.049Z,8.00
2023-03-22T07:06:31.412Z,8.03
2023-03-22T07:08:57.731Z,8.13
2023-03-22T07:11:24.040Z,8.25
2023-03-22T07:13:50.355Z,8.36
2023-03-22T07:16:19.363Z,8.50
2023-03-22T07:18:46.218Z,8.61
2023-03-22T07:21:12.527Z,8.70
2023-03-22T07:23:38.844Z,8.71
2023-03-22T07:26:05.157Z,8.78
2023-03-22T07:28:31.471Z,8.86
2023-03-22T07:30:57.807Z,8.88
2023-03-22T07:33:24.129Z,8.93
2023-03-22T07:35:50.494Z,9.00
2023-03-22T07:38:16.816Z,9.18
2023-03-22T07:40:43.135Z,9.16
2023-03-22T07:43:09.451Z,9.14
2023-03-22T07:45:35.769Z,9.30
2023-03-22T07:48:02.148Z,9.43
2023-03-22T07:50:28.510Z,9.49
2023-03-22T07:52:54.862Z,9.51
2023-03-22T07:55:21.174Z,9.64
2023-03-22T07:57:47.498Z,9.66
2023-03-22T08:00:13.815Z,9.78
2023-03-22T08:02:40.214Z,9.77
2023-03-22T08:05:06.571Z,9.88
2023-03-22T08:07:32.890Z,9.93
2023-03-22T08:09:59.422Z,9.99
2023-03-22T08:12:25.744Z,10.11
2023-03-22T08:14:52.082Z,10.11
2023-03-22T08:17:18.402Z,10.16
2023-03-22T08:19:44.733Z,10.29
2023-03-22T08:22:11.047Z,10.32
2023-03-22T08:24:37.402Z,10.28
2023-03-22T08:27:03.745Z,10.36
2023-03-22T08:29:30.257Z,10.41
2023-03-22T08:31:56.585Z,10.49
2023-03-22T08:34:22.933Z,10.56
2023-03-22T08:36:49.266Z,10.57
2023-03-22T08:39:15.606Z,10.60
2023-03-22T08:41:41.944Z,10.69
2023-03-22T08:44:08.252Z,10.71
2023-03-22T08:46:34.609Z,10.77
2023-03-22T08:49:00.927Z,10.85
2023-03-22T08:51:27.247Z,10.90
2023-03-22T08:53:53.558Z,10.98
2023-03-22T08:56:19.883Z,11.10
2023-03-22T08:58:46.216Z,11.18
2023-03-22T09:01:12.640Z,11.33
2023-03-22T09:03:39.009Z,11.29
2023-03-22T09:06:05.330Z,11.28
2023-03-22T09:08:31.668Z,11.27
2023-03-22T09:10:57.979Z,11.36
2023-03-22T09:13:24.305Z,11.47
2023-03-22T09:15:50.645Z,11.50
2023-03-22T09:18:16.962Z,11.56
2023-03-22T09:20:43.650Z,11.64
2023-03-22T09:23:10.021Z,11.54
2023-03-22T09:25:36.353Z,11.62
2023-03-22T09:28:02.673Z,11.66
2023-03-22T09:30:29.022Z,11.79
2023-03-22T09:32:55.386Z,11.82
2023-03-22T09:35:21.746Z,11.94
2023-03-22T09:37:48.090Z,12.07
2023-03-22T09:40:14.405Z,12.13
2023-03-22T09:42:40.709Z,12.18
2023-03-22T09:45:07.042Z,12.21
2023-03-22T09:47:44.448Z,12.28
2023-03-22T09:50:11.310Z,12.31
2023-03-22T09:52:38.709Z,12.31
2023-03-22T09:55:05.010Z,12.42
2023-03-22T09:57:31.342Z,12.63
2023-03-22T09:59:57.677Z,12.65
2023-03-22T10:02:24.105Z,12.65
2023-03-22T10:04:50.467Z,12.64
2023-03-22T10:07:16.770Z,12.69
2023-03-22T10:09:43.094Z,12.60
2023-03-22T10:12:09.431Z,12.69
2023-03-22T10:14:35.768Z,12.69
2023-03-22T10:17:02.108Z,12.83
2023-03-22T10:19:28.430Z,12.96
2023-03-22T10:21:54.740Z,13.06
2023-03-22T10:24:21.083Z,13.11
2023-03-22T10:26:47.610Z,12.96
2023-03-22T10:29:13.950Z,13.00
2023-03-22T10:31:40.305Z,13.06
2023-03-22T10:34:06.639Z,13.13
2023-03-22T10:36:32.960Z,13.24
2023-03-22T10:38:59.272Z,13.32
2023-03-22T10:41:25.615Z,13.33
2023-03-22T10:43:51.954Z,13.39
2023-03-22T10:46:18.399Z,13.49
2023-03-22T10:48:44.794Z,13.55
2023-03-22T10:51:11.121Z,13.61
2023-03-22T10:53:37.448Z,13.70
2023-03-22T10:56:03.783Z,13.81
2023-03-22T10:58:30.111Z,13.96
2023-03-22T11:00:56.594Z,13.83
2023-03-22T11:03:23.042Z,13.94
2023-03-22T11:05:49.378Z,13.90
2023-03-22T11:08:15.708Z,13.85
2023-03-22T11:10:42.119Z,14.00
2023-03-22T11:13:08.466Z,14.02
2023-03-22T11:15:34.796Z,14.06
2023-03-22T11:18:01.128Z,14.03
2023-03-22T11:20:29.224Z,14.14
2023-03-22T11:22:56.219Z,14.21
2023-03-22T11:25:22.534Z,14.18
2023-03-22T11:27:48.858Z,14.30
2023-03-22T11:30:15.162Z,14.32
2023-03-22T11:32:41.549Z,14.41
2023-03-22T11:35:07.909Z,14.54
2023-03-22T11:37:34.228Z,14.67
2023-03-22T11:40:00.562Z,14.62
2023-03-22T11:42:26.917Z,14.71
2023-03-22T11:44:53.250Z,14.83
2023-03-22T11:47:19.577Z,14.89
2023-03-22T11:49:45.893Z,14.96
2023-03-22T11:52:12.225Z,15.05
2023-03-22T11:54:38.546Z,15.19
2023-03-22T11:57:04.866Z,15.35
2023-03-22T11:59:31.207Z,15.42
2023-03-22T12:01:57.532Z,15.33
2023-03-22T12:04:23.879Z,15.34
2023-03-22T12:06:50.377Z,15.41
2023-03-22T12:09:16.735Z,15.41
2023-03-22T12:11:43.062Z,15.45
2023-03-22T12:14:09.402Z,15.62
2023-03-22T12:16:35.879Z,15.29
2023-03-22T12:19:02.262Z,15.49
2023-03-22T12:21:28.595Z,15.29
2023-03-22T12:23:54.899Z,15.34
2023-03-22T12:26:21.210Z,15.50
2023-03-22T12:28:47.539Z,15.69
2023-03-22T12:31:13.914Z,15.77
2023-03-22T12:33:40.278Z,15.92
2023-03-22T12:36:06.649Z,16.14
2023-03-22T12:38:32.997Z,16.24
2023-03-22T12:40:59.306Z,16.20
2023-03-22T12:43:25.629Z,16.17
2023-03-22T12:45:51.933Z,16.17
2023-03-22T12:48:18.340Z,16.27
2023-03-22T12:50:44.727Z,16.25
2023-03-22T12:53:11.065Z,16.28
2023-03-22T12:55:37.374Z,16.42
2023-03-22T12:58:03.696Z,16.52
2023-03-22T13:00:30.048Z,16.36
2023-03-22T13:02:56.467Z,16.36
2023-03-22T13:05:22.828Z,16.31
2023-03-22T13:07:49.157Z,16.31
2023-03-22T13:10:15.474Z,16.45
2023-03-22T13:12:41.777Z,16.55
2023-03-22T13:15:08.115Z,16.61
2023-03-22T13:17:34.455Z,16.56
2023-03-22T13:20:00.792Z,16.61
2023-03-22T13:22:27.134Z,16.70
2023-03-22T13:24:53.433Z,16.72
2023-03-22T13:27:19.738Z,16.90
2023-03-22T13:29:46.101Z,16.99
2023-03-22T13:32:12.481Z,17.04
2023-03-22T13:34:38.897Z,17.24
2023-03-22T13:37:05.218Z,17.44
2023-03-22T13:39:31.580Z,17.56
2023-03-22T13:41:57.907Z,17.65
2023-03-22T13:44:24.245Z,17.64
2023-03-22T13:46:50.551Z,17.69
2023-03-22T13:49:17.146Z,17.74
2023-03-22T13:51:43.540Z,17.85
2023-03-22T13:54:09.848Z,17.96
2023-03-22T13:56:36.180Z,18.00
2023-03-22T13:59:02.491Z,18.05
2023-03-22T14:01:28.834Z,18.20
2023-03-22T14:03:55.240Z,18.04
2023-03-22T14:06:21.583Z,17.68
2023-03-22T14:08:47.903Z,17.56
2023-03-22T14:11:14.222Z,17.71
2023-03-22T14:13:40.532Z,17.80
2023-03-22T14:16:06.911Z,17.98
2023-03-22T14:18:33.253Z,18.12
2023-03-22T14:20:59.625Z,18.41
